createdAt,value
2023-04-23T00:00:27.104Z,13.70
2023-04-23T00:02:55.041Z,13.70
2023-04-23T00:05:27.440Z,13.70
2023-04-23T00:07:54.786Z,13.70
2023-04-23T00:10:22.381Z,13.70
2023-04-23T00:12:49.749Z,13.60
2023-04-23T00:15:17.677Z,13.70
2023-04-23T00:17:44.775Z,13.70
2023-04-23T00:20:11.919Z,13.70
2023-04-23T00:22:39.080Z,13.60
2023-04-23T00:25:06.572Z,13.70
2023-04-23T00:27:33.660Z,13.70
2023-04-23T00:30:00.699Z,13.60
2023-04-23T00:32:27.786Z,13.60
2023-04-23T00:34:56.530Z,13.60
2023-04-23T00:37:23.614Z,13.60
2023-04-23T00:39:50.801Z,13.60
2023-04-23T00:42:17.821Z,13.60
2023-04-23T00:44:44.891Z,13.50
2023-04-23T00:47:12.334Z,13.50
2023-04-23T00:49:39.621Z,13.50
2023-04-23T00:52:06.945Z,13.40
2023-04-23T00:54:34.102Z,13.40
2023-04-23T00:57:02.274Z,13.40
2023-04-23T00:59:31.761Z,13.40
2023-04-23T01:01:59.264Z,13.40
2023-04-23T01:04:31.111Z,13.30
2023-04-23T01:06:59.151Z,13.30
2023-04-23T01:09:27.861Z,13.30
2023-04-23T01:11:55.264Z,13.20
2023-04-23T01:14:22.417Z,13.20
2023-04-23T01:16:49.988Z,13.20
2023-04-23T01:19:17.168Z,13.20
2023-04-23T01:21:44.635Z,13.10
2023-04-23T01:24:12.383Z,13.10
2023-04-23T01:26:39.829Z,13.10
2023-04-23T01:29:07.092Z,13.10
2023-04-23T01:31:34.756Z,13.00
2023-04-23T01:34:02.341Z,13.00
2023-04-23T01:36:30.302Z,13.00
2023-04-23T01:38:57.586Z,13.00
2023-04-23T01:41:25.114Z,12.90
2023-04-23T01:43:52.372Z,12.90
2023-04-23T01:46:21.036Z,12.90
2023-04-23T01:48:48.201Z,12.90
2023-04-23T01:51:15.549Z,12.90
2023-04-23T01:53:42.611Z,12.90
2023-04-23T01:56:10.540Z,12.80
2023-04-23T01:58:37.999Z,12.80
2023-04-23T02:01:05.090Z,12.80
2023-04-23T02:03:34.116Z,12.80
2023-04-23T02:06:01.623Z,12.80
2023-04-23T02:08:28.795Z,12.70
2023-04-23T02:10:55.891Z,12.70
2023-04-23T02:13:23.149Z,12.70
2023-04-23T02:15:50.441Z,12.60
2023-04-23T02:18:17.633Z,12.60
2023-04-23T02:20:44.908Z,12.60
2023-04-23T02:23:12.403Z,12.60
2023-04-23T02:25:39.681Z,12.60
2023-04-23T02:28:08.449Z,12.60
2023-04-23T02:30:35.907Z,12.50
2023-04-23T02:33:03.927Z,12.50
2023-04-23T02:35:31.558Z,12.50
2023-04-23T02:37:58.766Z,12.50
2023-04-23T02:40:25.948Z,12.40
2023-04-23T02:42:53.096Z,12.40
2023-04-23T02:45:20.344Z,12.40
2023-04-23T02:47:47.469Z,12.40
2023-04-23T02:50:14.601Z,12.40
2023-04-23T02:52:41.673Z,12.40
2023-04-23T02:55:09.682Z,12.30
2023-04-23T02:57:37.173Z,12.30
2023-04-23T03:00:07.289Z,12.30
2023-04-23T03:02:34.570Z,12.20
2023-04-23T03:05:01.712Z,12.20
2023-04-23T03:07:28.778Z,12.20
2023-04-23T03:09:55.863Z,12.10
2023-04-23T03:12:22.998Z,12.10
2023-04-23T03:14:50.074Z,12.10
2023-04-23T03:17:17.116Z,12.10
2023-04-23T03:19:44.221Z,12.00
2023-04-23T03:22:11.279Z,12.00
2023-04-23T03:24:38.565Z,12.00
2023-04-23T03:27:05.771Z,12.00
2023-04-23T03:29:32.949Z,12.00
2023-04-23T03:31:59.999Z,11.90
2023-04-23T03:34:27.180Z,11.90
2023-04-23T03:36:54.289Z,11.90
2023-04-23T03:39:21.435Z,11.90
2023-04-23T03:41:49.556Z,11.90
2023-04-23T03:44:16.609Z,11.90
2023-04-23T03:46:43.692Z,11.80
2023-04-23T03:49:10.801Z,11.80
2023-04-23T03:51:37.896Z,11.80
2023-04-23T03:54:05.072Z,11.80
2023-04-23T03:56:32.216Z,11.80
2023-04-23T03:58:59.339Z,11.80
2023-04-23T04:01:26.491Z,11.80
2023-04-23T04:03:53.750Z,11.80
2023-04-23T04:06:21.062Z,11.80
2023-04-23T04:08:48.115Z,11.80
2023-04-23T04:11:15.356Z,11.70
2023-04-23T04:13:42.458Z,11.80
2023-04-23T04:16:09.566Z,11.70
2023-04-23T04:18:36.737Z,11.70
2023-04-23T04:21:03.927Z,11.70
2023-04-23T04:23:31.166Z,11.70
2023-04-23T04:25:59.975Z,11.80
2023-04-23T04:28:27.169Z,11.80
2023-04-23T04:30:54.915Z,11.90
2023-04-23T04:33:21.960Z,11.90
2023-04-23T04:35:49.741Z,11.90
2023-04-23T04:38:16.822Z,11.90
2023-04-23T04:40:44.165Z,12.00
2023-04-23T04:43:11.268Z,12.00
2023-04-23T04:45:38.301Z,12.00
2023-04-23T04:48:05.588Z,12.10
2023-04-23T04:50:32.668Z,12.10
2023-04-23T04:53:00.283Z,12.10
2023-04-23T04:55:27.481Z,12.10
2023-04-23T04:57:54.516Z,12.20
2023-04-23T05:00:27.988Z,12.20
2023-04-23T05:02:56.804Z,12.30
2023-04-23T05:05:26.115Z,12.30
2023-04-23T05:07:54.482Z,12.40
2023-04-23T05:10:21.877Z,12.50
2023-04-23T05:12:49.007Z,12.50
2023-04-23T05:15:16.610Z,12.60
2023-04-23T05:17:43.881Z,12.60
2023-04-23T05:20:11.514Z,12.70
2023-04-23T05:22:39.767Z,12.80
2023-04-23T05:25:07.614Z,12.80
2023-04-23T05:27:35.168Z,12.90
2023-04-23T05:30:03.579Z,13.00
2023-04-23T05:32:30.767Z,13.00
2023-04-23T05:35:00.045Z,13.10
2023-04-23T05:37:27.131Z,13.20
2023-04-23T05:39:54.261Z,13.20
2023-04-23T05:42:21.850Z,13.30
2023-04-23T05:44:48.925Z,13.30
2023-04-23T05:47:16.042Z,13.40
2023-04-23T05:49:43.252Z,13.50
2023-04-23T05:52:10.330Z,13.60
2023-04-23T05:54:37.453Z,13.70
2023-04-23T05:57:05.204Z,13.70
2023-04-23T05:59:32.316Z,13.80
2023-04-23T06:01:59.720Z,13.80
2023-04-23T06:04:50.398Z,13.90
2023-04-23T06:07:17.594Z,14.00
2023-04-23T06:09:44.751Z,14.10
2023-04-23T06:12:11.814Z,14.20
2023-04-23T06:14:39.087Z,14.30
2023-04-23T06:17:06.567Z,14.40
2023-04-23T06:19:33.752Z,14.50
2023-04-23T06:22:00.976Z,14.60
2023-04-23T06:24:28.141Z,14.80
2023-04-23T06:26:55.214Z,14.90
2023-04-23T06:29:22.301Z,15.00
2023-04-23T06:31:49.598Z,15.10
2023-04-23T06:34:16.769Z,15.10
2023-04-23T06:36:43.968Z,15.20
2023-04-23T06:39:11.073Z,15.30
2023-04-23T06:41:38.783Z,15.30
2023-04-23T06:44:06.258Z,15.30
2023-04-23T06:46:33.510Z,15.40
2023-04-23T06:49:00.831Z,15.50
2023-04-23T06:51:28.230Z,15.60
2023-04-23T06:53:55.434Z,15.70
2023-04-23T06:56:22.600Z,15.90
2023-04-23T06:58:49.681Z,16.00
2023-04-23T07:01:16.968Z,16.10
2023-04-23T07:03:46.669Z,16.20
2023-04-23T07:06:13.851Z,16.30
2023-04-23T07:08:41.500Z,16.40
2023-04-23T07:11:08.942Z,16.50
2023-04-23T07:13:36.193Z,16.60
2023-04-23T07:16:03.253Z,16.70
2023-04-23T07:18:30.427Z,16.80
2023-04-23T07:20:57.478Z,16.90
2023-04-23T07:23:24.514Z,17.00
2023-04-23T07:25:52.508Z,17.10
2023-04-23T07:28:19.776Z,17.20
2023-04-23T07:30:48.217Z,17.30
2023-04-23T07:33:15.336Z,17.40
2023-04-23T07:35:42.448Z,17.50
2023-04-23T07:38:09.843Z,17.50
2023-04-23T07:40:37.151Z,17.60
2023-04-23T07:43:04.514Z,17.70
2023-04-23T07:45:31.647Z,17.70
2023-04-23T07:47:59.212Z,17.70
2023-04-23T07:50:26.277Z,17.70
2023-04-23T07:52:53.383Z,17.90
2023-04-23T07:55:21.770Z,17.90
2023-04-23T07:57:48.852Z,17.90
2023-04-23T08:00:16.170Z,18.10
2023-04-23T08:02:43.452Z,18.20
2023-04-23T08:05:10.881Z,18.30
2023-04-23T08:07:38.187Z,18.40
2023-04-23T08:10:06.545Z,18.40
2023-04-23T08:12:35.897Z,18.60
2023-04-23T08:15:03.853Z,18.60
2023-04-23T08:17:30.978Z,18.60
2023-04-23T08:19:58.216Z,18.60
2023-04-23T08:22:25.449Z,18.60
2023-04-23T08:24:52.527Z,18.70
2023-04-23T08:27:19.573Z,18.80
2023-04-23T08:29:46.612Z,18.80
2023-04-23T08:32:13.835Z,18.90
2023-04-23T08:34:40.958Z,18.90
2023-04-23T08:37:13.925Z,19.10
2023-04-23T08:39:47.016Z,19.20
2023-04-23T08:42:23.319Z,19.30
2023-04-23T08:44:53.280Z,19.40
2023-04-23T08:47:24.618Z,19.50
2023-04-23T08:49:54.630Z,19.60
2023-04-23T08:52:26.588Z,19.60
2023-04-23T08:54:55.189Z,19.70
2023-04-23T08:57:22.631Z,19.80
2023-04-23T08:59:50.199Z,19.90
2023-04-23T09:02:18.175Z,20.10
2023-04-23T09:04:46.504Z,20.20
2023-04-23T09:07:15.324Z,20.30
2023-04-23T09:09:42.753Z,20.40
2023-04-23T09:12:10.196Z,20.50
2023-04-23T09:14:37.694Z,20.60
2023-04-23T09:17:04.835Z,20.60
2023-04-23T09:19:32.649Z,20.70
2023-04-23T09:22:02.196Z,20.80
2023-04-23T09:24:30.239Z,20.80
2023-04-23T09:26:58.665Z,20.90
2023-04-23T09:29:26.153Z,21.00
2023-04-23T09:31:56.090Z,21.00
2023-04-23T09:34:24.921Z,21.20
2023-04-23T09:36:53.296Z,21.30
2023-04-23T09:39:24.260Z,21.40
2023-04-23T09:41:53.498Z,21.50
2023-04-23T09:44:26.531Z,21.60
2023-04-23T09:46:53.696Z,21.70
2023-04-23T09:49:20.925Z,21.70
2023-04-23T09:51:49.209Z,21.80
2023-04-23T09:54:22.804Z,21.80
2023-04-23T09:56:51.548Z,21.90
2023-04-23T09:59:36.027Z,22.00
2023-04-23T10:02:12.927Z,22.20
2023-04-23T10:04:40.360Z,22.40
2023-04-23T10:07:18.958Z,22.50
2023-04-23T10:09:47.839Z,22.60
2023-04-23T10:12:36.620Z,22.70
2023-04-23T10:15:07.528Z,22.80
2023-04-23T10:17:36.275Z,22.90
2023-04-23T10:20:05.191Z,23.00
2023-04-23T10:22:33.820Z,23.00
2023-04-23T10:25:06.375Z,23.20
2023-04-23T10:27:49.115Z,23.20
2023-04-23T10:30:20.652Z,23.40
2023-04-23T10:32:49.744Z,23.60
2023-04-23T10:35:17.161Z,23.80
2023-04-23T10:37:48.230Z,24.10
2023-04-23T10:40:22.091Z,24.30
2023-04-23T10:42:50.083Z,24.50
2023-04-23T10:47:49.373Z,24.80
2023-04-23T10:50:24.151Z,24.90
2023-04-23T10:52:53.323Z,25.10
2023-04-23T10:55:23.658Z,25.10
2023-04-23T10:58:02.242Z,25.20
2023-04-23T11:00:43.114Z,25.10
2023-04-23T11:03:44.607Z,25.10
2023-04-23T11:06:38.212Z,25.10
2023-04-23T11:09:32.800Z,25.10
2023-04-23T11:12:01.687Z,25.10
2023-04-23T11:14:50.697Z,25.10
2023-04-23T11:17:21.944Z,25.20
2023-04-23T11:20:04.366Z,25.20
2023-04-23T11:22:36.623Z,25.20
2023-04-23T11:25:05.377Z,25.20
2023-04-23T11:27:32.640Z,25.20
2023-04-23T11:30:00.146Z,25.20
2023-04-23T11:32:28.195Z,25.30
2023-04-23T11:34:55.516Z,25.30
2023-04-23T11:37:22.565Z,25.20
2023-04-23T11:39:51.538Z,25.20
2023-04-23T11:42:20.303Z,25.40
2023-04-23T11:44:48.067Z,25.40
2023-04-23T11:47:18.995Z,25.50
2023-04-23T11:49:46.256Z,25.50
2023-04-23T11:52:14.648Z,25.50
2023-04-23T11:54:42.306Z,25.60
2023-04-23T11:57:10.448Z,25.70
2023-04-23T11:59:37.759Z,25.70
2023-04-23T12:02:05.026Z,25.70
2023-04-23T12:04:34.293Z,25.80
2023-04-23T12:07:05.770Z,25.80
2023-04-23T12:09:38.325Z,25.80
2023-04-23T12:12:06.562Z,25.80
2023-04-23T12:14:34.082Z,25.80
2023-04-23T12:17:11.205Z,25.90
2023-04-23T12:19:40.613Z,25.90
2023-04-23T12:22:08.650Z,25.80
2023-04-23T12:24:52.299Z,25.80
2023-04-23T12:27:21.981Z,25.80
2023-04-23T12:29:51.294Z,25.90
2023-04-23T12:32:19.315Z,25.90
2023-04-23T12:34:54.636Z,25.90
2023-04-23T12:37:26.904Z,25.80
2023-04-23T12:39:56.799Z,25.70
2023-04-23T12:42:24.499Z,25.70
2023-04-23T12:44:51.883Z,25.60
2023-04-23T12:47:21.882Z,25.60
2023-04-23T12:49:53.478Z,25.60
2023-04-23T12:52:21.339Z,25.60
2023-04-23T12:54:52.279Z,25.50
2023-04-23T12:57:23.348Z,25.50
2023-04-23T12:59:50.985Z,25.50
2023-04-23T13:02:18.538Z,25.50
2023-04-23T13:04:45.706Z,25.40
2023-04-23T13:07:12.844Z,25.40
2023-04-23T13:09:40.010Z,25.40
2023-04-23T13:12:07.155Z,25.50
2023-04-23T13:14:34.365Z,25.40
2023-04-23T13:17:01.405Z,25.40
2023-04-23T13:19:28.550Z,25.40
2023-04-23T13:21:55.654Z,25.30
2023-04-23T13:24:22.826Z,25.30
2023-04-23T13:26:49.995Z,25.40
2023-04-23T13:29:17.187Z,25.50
2023-04-23T13:31:44.367Z,25.60
2023-04-23T13:34:11.439Z,25.60
2023-04-23T13:36:41.427Z,25.70
2023-04-23T13:39:09.128Z,25.60
2023-04-23T13:41:36.297Z,25.60
2023-04-23T13:44:03.492Z,25.70
2023-04-23T13:46:30.697Z,25.80
2023-04-23T13:48:57.851Z,25.90
2023-04-23T13:51:34.659Z,25.80
2023-04-23T13:54:03.221Z,25.90
2023-04-23T13:56:31.260Z,25.90
2023-04-23T13:59:18.902Z,25.90
2023-04-23T14:01:50.155Z,25.90
2023-04-23T14:04:18.715Z,25.90
2023-04-23T14:06:46.219Z,25.80
2023-04-23T14:09:13.338Z,25.80
2023-04-23T14:11:41.666Z,25.80
2023-04-23T14:14:08.959Z,25.80
2023-04-23T14:16:36.168Z,25.70
2023-04-23T14:19:03.309Z,25.70
2023-04-23T14:21:30.613Z,25.60
2023-04-23T14:24:16.792Z,25.60
2023-04-23T14:26:49.155Z,25.50
2023-04-23T14:29:22.890Z,25.40
2023-04-23T14:31:50.565Z,25.40
2023-04-23T14:34:17.747Z,25.40
2023-04-23T14:36:46.676Z,25.40
2023-04-23T14:39:13.784Z,25.30
2023-04-23T14:41:41.146Z,25.30
2023-04-23T14:44:08.376Z,25.20
2023-04-23T14:46:35.499Z,25.20
2023-04-23T14:49:02.655Z,25.10
2023-04-23T14:51:29.722Z,25.00
2023-04-23T14:53:57.015Z,24.90
2023-04-23T14:56:24.259Z,24.90
2023-04-23T14:58:51.352Z,24.80
2023-04-23T15:01:18.592Z,24.70
2023-04-23T15:03:46.533Z,24.70
2023-04-23T15:06:13.938Z,24.60
2023-04-23T15:08:41.050Z,24.60
2023-04-23T15:11:13.478Z,24.60
2023-04-23T15:13:52.822Z,24.60
2023-04-23T15:16:47.448Z,24.60
2023-04-23T15:19:18.035Z,24.60
2023-04-23T15:21:46.514Z,24.60
2023-04-23T15:24:14.005Z,24.60
2023-04-23T15:26:41.419Z,24.50
2023-04-23T15:29:09.824Z,24.50
2023-04-23T15:31:37.904Z,24.40
2023-04-23T15:34:07.443Z,24.40
2023-04-23T15:36:35.750Z,24.30
2023-04-23T15:39:03.336Z,24.20
2023-04-23T15:41:30.546Z,24.10
2023-04-23T15:43:57.660Z,24.00
2023-04-23T15:46:24.746Z,23.90
2023-04-23T15:48:51.824Z,23.90
2023-04-23T15:51:19.043Z,23.90
2023-04-23T15:53:46.180Z,23.80
2023-04-23T15:56:13.346Z,23.80
2023-04-23T15:58:40.519Z,23.80
2023-04-23T16:01:09.851Z,23.70
2023-04-23T16:03:37.591Z,23.60
2023-04-23T16:06:05.356Z,23.60
2023-04-23T16:08:32.814Z,23.50
2023-04-23T16:11:00.033Z,23.50
2023-04-23T16:13:29.006Z,23.40
2023-04-23T16:15:56.262Z,23.40
2023-04-23T16:18:23.376Z,23.30
2023-04-23T16:20:50.467Z,23.20
2023-04-23T16:23:17.708Z,23.20
2023-04-23T16:25:44.936Z,23.10
2023-04-23T16:28:13.874Z,23.00
2023-04-23T16:30:41.116Z,23.00
2023-04-23T16:33:09.575Z,22.90
2023-04-23T16:35:36.805Z,22.90
2023-04-23T16:38:03.955Z,22.80
2023-04-23T16:40:31.152Z,22.80
2023-04-23T16:42:58.371Z,22.70
2023-04-23T16:45:25.535Z,22.60
2023-04-23T16:47:52.601Z,22.60
2023-04-23T16:50:19.791Z,22.50
2023-04-23T16:52:47.152Z,22.50
2023-04-23T16:55:14.457Z,22.40
2023-04-23T16:57:41.594Z,22.40
2023-04-23T17:00:09.920Z,22.30
2023-04-23T17:02:38.065Z,22.30
2023-04-23T17:05:06.364Z,22.20
2023-04-23T17:07:33.712Z,22.10
2023-04-23T17:10:00.901Z,22.10
2023-04-23T17:12:28.039Z,22.00
2023-04-23T17:14:55.279Z,21.90
2023-04-23T17:17:23.108Z,21.90
2023-04-23T17:19:50.220Z,21.80
2023-04-23T17:22:17.583Z,21.70
2023-04-23T17:24:46.054Z,21.60
2023-04-23T17:27:13.176Z,21.60
2023-04-23T17:29:40.340Z,21.50
2023-04-23T17:32:09.155Z,21.40
2023-04-23T17:34:38.990Z,21.30
2023-04-23T17:37:06.277Z,21.30
2023-04-23T17:39:33.463Z,21.20
2023-04-23T17:42:00.560Z,21.10
2023-04-23T17:44:27.726Z,21.00
2023-04-23T17:46:55.282Z,20.90
2023-04-23T17:49:22.886Z,20.80
2023-04-23T17:51:50.220Z,20.80
2023-04-23T17:54:17.839Z,20.70
2023-04-23T17:56:45.127Z,20.60
2023-04-23T17:59:12.289Z,20.50
2023-04-23T18:01:39.660Z,20.50
2023-04-23T18:04:07.083Z,20.40
2023-04-23T18:06:35.809Z,20.30
2023-04-23T18:09:03.754Z,20.30
2023-04-23T18:11:31.044Z,20.20
2023-04-23T18:13:58.246Z,20.20
2023-04-23T18:16:25.563Z,20.10
2023-04-23T18:18:52.803Z,20.10
2023-04-23T18:21:19.960Z,20.00
2023-04-23T18:23:47.493Z,20.00
2023-04-23T18:26:14.696Z,20.00
2023-04-23T18:28:41.819Z,20.00
2023-04-23T18:31:09.098Z,19.90
2023-04-23T18:33:42.030Z,19.90
2023-04-23T18:36:21.359Z,19.90
2023-04-23T18:38:49.599Z,19.90
2023-04-23T18:41:16.774Z,19.90
2023-04-23T18:43:43.943Z,19.90
2023-04-23T18:46:11.108Z,19.90
2023-04-23T18:48:44.049Z,19.90
2023-04-23T18:51:14.963Z,19.80
2023-04-23T18:53:42.088Z,19.80
2023-04-23T18:56:09.276Z,19.80
2023-04-23T18:58:36.349Z,19.70
2023-04-23T19:01:03.557Z,19.60
2023-04-23T19:03:31.748Z,19.60
2023-04-23T19:06:07.172Z,19.60
2023-04-23T19:08:35.679Z,19.50
2023-04-23T19:11:03.553Z,19.50
2023-04-23T19:13:30.768Z,19.40
2023-04-23T19:15:57.982Z,19.30
2023-04-23T19:18:25.404Z,19.30
2023-04-23T19:20:52.784Z,19.30
2023-04-23T19:23:20.878Z,19.20
2023-04-23T19:25:48.236Z,19.10
2023-04-23T19:28:15.292Z,19.10
2023-04-23T19:30:42.387Z,19.10
2023-04-23T19:33:09.689Z,19.00
2023-04-23T19:35:38.675Z,19.00
2023-04-23T19:38:07.349Z,19.00
2023-04-23T19:40:34.681Z,18.90
2023-04-23T19:43:01.796Z,18.90
2023-04-23T19:45:30.113Z,18.80
2023-04-23T19:47:57.613Z,18.80
2023-04-23T19:50:25.654Z,18.70
2023-04-23T19:52:53.053Z,18.70
2023-04-23T19:55:22.486Z,18.60
2023-04-23T19:57:49.647Z,18.60
2023-04-23T20:00:17.026Z,18.50
2023-04-23T20:02:44.445Z,18.60
2023-04-23T20:05:11.655Z,18.60
2023-04-23T20:07:39.153Z,18.60
2023-04-23T20:10:07.545Z,18.60
2023-04-23T20:12:35.006Z,18.70
2023-04-23T20:15:02.312Z,18.70
2023-04-23T20:17:32.928Z,18.80
2023-04-23T20:20:01.962Z,18.80
2023-04-23T20:22:29.920Z,18.80
2023-04-23T20:24:58.988Z,18.90
2023-04-23T20:27:26.433Z,18.90
2023-04-23T20:29:53.845Z,18.90
2023-04-23T20:32:21.074Z,18.90
2023-04-23T20:34:48.320Z,18.90
2023-04-23T20:37:15.432Z,18.80
2023-04-23T20:39:43.127Z,18.80
2023-04-23T20:42:10.390Z,18.70
2023-04-23T20:44:38.576Z,18.70
2023-04-23T20:47:08.527Z,18.60
2023-04-23T20:49:35.859Z,18.60
2023-04-23T20:52:03.084Z,18.50
2023-04-23T20:54:30.138Z,18.50
2023-04-23T20:56:57.706Z,18.50
2023-04-23T20:59:24.801Z,18.50
2023-04-23T21:01:51.979Z,18.50
2023-04-23T21:04:19.404Z,18.50
2023-04-23T21:06:49.407Z,18.50
2023-04-23T21:09:16.653Z,18.50
2023-04-23T21:11:43.897Z,18.50
2023-04-23T21:14:11.066Z,18.50
2023-04-23T21:16:38.475Z,18.40
2023-04-23T21:19:06.072Z,18.30
2023-04-23T21:21:33.218Z,18.30
2023-04-23T21:24:01.038Z,18.10
2023-04-23T21:26:30.685Z,18.00
2023-04-23T21:28:57.869Z,17.80
2023-04-23T21:31:46.513Z,17.70
2023-04-23T21:34:16.861Z,17.50
2023-04-23T21:36:46.784Z,17.40
2023-04-23T21:39:13.929Z,17.30
2023-04-23T21:41:41.669Z,17.30
2023-04-23T21:44:09.179Z,17.20
2023-04-23T21:46:36.431Z,17.10
2023-04-23T21:49:03.546Z,17.10
2023-04-23T21:51:30.773Z,17.00
2023-04-23T21:53:57.863Z,17.00
2023-04-23T21:56:24.965Z,16.90
2023-04-23T21:58:52.081Z,16.90
2023-04-23T22:01:19.248Z,16.90
2023-04-23T22:03:47.251Z,16.80
2023-04-23T22:06:15.857Z,16.80
2023-04-23T22:08:44.774Z,16.80
2023-04-23T22:11:12.875Z,16.70
2023-04-23T22:13:39.942Z,16.70
2023-04-23T22:16:20.341Z,16.70
2023-04-23T22:18:52.116Z,16.60
2023-04-23T22:21:19.164Z,16.60
2023-04-23T22:23:46.285Z,16.60
2023-04-23T22:26:13.424Z,16.50
2023-04-23T22:28:40.524Z,16.50
2023-04-23T22:31:07.586Z,16.40
2023-04-23T22:33:35.135Z,16.40
2023-04-23T22:36:03.346Z,16.40
2023-04-23T22:38:30.435Z,16.40
2023-04-23T22:40:57.544Z,16.40
2023-04-23T22:43:24.609Z,16.50
2023-04-23T22:45:51.714Z,16.40
2023-04-23T22:48:18.945Z,16.40
2023-04-23T22:50:46.016Z,16.40
2023-04-23T22:53:13.112Z,16.30
2023-04-23T22:55:40.284Z,16.30
2023-04-23T22:58:07.393Z,16.30
2023-04-23T23:00:34.466Z,16.30
2023-04-23T23:03:01.720Z,16.30
2023-04-23T23:05:28.924Z,16.20
2023-04-23T23:07:56.509Z,16.20
2023-04-23T23:10:23.654Z,16.20
2023-04-23T23:12:50.829Z,16.20
2023-04-23T23:15:17.987Z,16.10
2023-04-23T23:17:45.035Z,16.10
2023-04-23T23:20:12.192Z,16.10
2023-04-23T23:22:39.349Z,16.10
2023-04-23T23:25:07.502Z,16.10
2023-04-23T23:27:34.661Z,16.10
2023-04-23T23:30:05.684Z,16.10
2023-04-23T23:32:33.483Z,16.10
2023-04-23T23:35:00.818Z,16.10
2023-04-23T23:37:28.167Z,16.10
2023-04-23T23:39:55.593Z,16.10
2023-04-23T23:42:22.791Z,16.10
2023-04-23T23:44:49.967Z,16.10
2023-04-23T23:47:17.159Z,16.00
2023-04-23T23:49:44.475Z,16.00
2023-04-23T23:52:11.900Z,16.00
2023-04-23T23:54:38.976Z,16.00
2023-04-23T23:57:06.157Z,16.00
2023-04-23T23:59:33.677Z,16.00
